sensor_id;sensor_type;location;lat;lon;timestamp;P1;durP1;ratioP1;P2;durP2;ratioP2
21727;SDS011;11026;50.560;17.852;2022-10-31T00:01:14;41.50;;;28.38;;
21727;SDS011;11026;50.560;17.852;2022-10-31T00:03:44;42.88;;;26.35;;
21727;SDS011;11026;50.560;17.852;2022-10-31T00:06:20;45.03;;;25.50;;
21727;SDS011;11026;50.560;17.852;2022-10-31T00:08:53;68.38;;;22.73;;
21727;SDS011;11026;50.560;17.852;2022-10-31T00:11:26;113.00;;;21.60;;
21727;SDS011;11026;50.560;17.852;2022-10-31T00:25:13;47.38;;;29.17;;
21727;SDS011;11026;50.560;17.852;2022-10-31T00:27:42;50.17;;;31.38;;
21727;SDS011;11026;50.560;17.852;2022-10-31T00:30:11;47.33;;;29.15;;
21727;SDS011;11026;50.560;17.852;2022-10-31T00:38:15;49.75;;;30.55;;
21727;SDS011;11026;50.560;17.852;2022-10-31T00:40:42;50.67;;;31.05;;
21727;SDS011;11026;50.560;17.852;2022-10-31T00:43:21;50.22;;;26.48;;
21727;SDS011;11026;50.560;17.852;2022-10-31T00:45:56;52.45;;;24.05;;
21727;SDS011;11026;50.560;17.852;2022-10-31T00:48:25;53.92;;;21.30;;
21727;SDS011;11026;50.560;17.852;2022-10-31T00:50:52;47.72;;;22.73;;
21727;SDS011;11026;50.560;17.852;2022-10-31T00:56:10;26.88;;;19.52;;
21727;SDS011;11026;50.560;17.852;2022-10-31T01:01:22;24.88;;;18.67;;
21727;SDS011;11026;50.560;17.852;2022-10-31T01:03:59;27.75;;;20.02;;
21727;SDS011;11026;50.560;17.852;2022-10-31T01:06:27;26.58;;;19.20;;
21727;SDS011;11026;50.560;17.852;2022-10-31T01:08:54;23.52;;;18.08;;
21727;SDS011;11026;50.560;17.852;2022-10-31T01:11:22;29.27;;;20.80;;
21727;SDS011;11026;50.560;17.852;2022-10-31T01:13:51;28.98;;;20.83;;
21727;SDS011;11026;50.560;17.852;2022-10-31T01:16:20;31.73;;;21.00;;
21727;SDS011;11026;50.560;17.852;2022-10-31T01:18:49;37.80;;;21.33;;
21727;SDS011;11026;50.560;17.852;2022-10-31T01:21:25;31.80;;;21.02;;
21727;SDS011;11026;50.560;17.852;2022-10-31T01:23:55;28.92;;;21.00;;
21727;SDS011;11026;50.560;17.852;2022-10-31T01:26:24;35.45;;;24.15;;
21727;SDS011;11026;50.560;17.852;2022-10-31T01:28:53;41.95;;;26.77;;
21727;SDS011;11026;50.560;17.852;2022-10-31T01:31:26;51.93;;;31.53;;
21727;SDS011;11026;50.560;17.852;2022-10-31T01:33:57;46.38;;;29.52;;
21727;SDS011;11026;50.560;17.852;2022-10-31T01:36:29;42.63;;;26.40;;
21727;SDS011;11026;50.560;17.852;2022-10-31T01:39:10;35.47;;;24.77;;
21727;SDS011;11026;50.560;17.852;2022-10-31T01:41:41;37.78;;;25.27;;
21727;SDS011;11026;50.560;17.852;2022-10-31T01:52:21;35.15;;;23.67;;
21727;SDS011;11026;50.560;17.852;2022-10-31T01:54:58;39.90;;;25.70;;
21727;SDS011;11026;50.560;17.852;2022-10-31T02:00:35;55.97;;;23.70;;
21727;SDS011;11026;50.560;17.852;2022-10-31T02:03:04;41.67;;;27.52;;
21727;SDS011;11026;50.560;17.852;2022-10-31T02:05:40;51.28;;;26.73;;
21727;SDS011;11026;50.560;17.852;2022-10-31T02:10:57;44.75;;;27.48;;
21727;SDS011;11026;50.560;17.852;2022-10-31T02:13:40;39.75;;;26.85;;
21727;SDS011;11026;50.560;17.852;2022-10-31T02:16:08;41.35;;;26.20;;
21727;SDS011;11026;50.560;17.852;2022-10-31T02:18:37;39.35;;;25.85;;
21727;SDS011;11026;50.560;17.852;2022-10-31T02:21:28;38.58;;;24.73;;
21727;SDS011;11026;50.560;17.852;2022-10-31T02:24:16;39.13;;;24.83;;
21727;SDS011;11026;50.560;17.852;2022-10-31T02:27:10;32.47;;;22.42;;
21727;SDS011;11026;50.560;17.852;2022-10-31T02:30:03;35.05;;;24.00;;
21727;SDS011;11026;50.560;17.852;2022-10-31T02:32:41;34.05;;;23.25;;
21727;SDS011;11026;50.560;17.852;2022-10-31T02:35:13;39.22;;;24.75;;
21727;SDS011;11026;50.560;17.852;2022-10-31T02:49:18;39.85;;;25.98;;
21727;SDS011;11026;50.560;17.852;2022-10-31T02:51:53;41.75;;;23.42;;
21727;SDS011;11026;50.560;17.852;2022-10-31T02:54:28;34.97;;;21.98;;
21727;SDS011;11026;50.560;17.852;2022-10-31T02:56:59;39.03;;;27.23;;
21727;SDS011;11026;50.560;17.852;2022-10-31T02:59:31;41.10;;;25.33;;
21727;SDS011;11026;50.560;17.852;2022-10-31T03:08:21;42.72;;;27.08;;
21727;SDS011;11026;50.560;17.852;2022-10-31T03:17:07;48.08;;;28.88;;
21727;SDS011;11026;50.560;17.852;2022-10-31T03:19:50;44.03;;;27.00;;
21727;SDS011;11026;50.560;17.852;2022-10-31T03:22:25;43.92;;;28.02;;
21727;SDS011;11026;50.560;17.852;2022-10-31T03:27:31;43.53;;;28.15;;
21727;SDS011;11026;50.560;17.852;2022-10-31T03:30:08;42.05;;;25.27;;
21727;SDS011;11026;50.560;17.852;2022-10-31T03:32:38;36.03;;;24.02;;
21727;SDS011;11026;50.560;17.852;2022-10-31T03:35:34;38.83;;;24.17;;
21727;SDS011;11026;50.560;17.852;2022-10-31T03:41:01;43.17;;;26.55;;
21727;SDS011;11026;50.560;17.852;2022-10-31T03:43:36;34.42;;;23.02;;
21727;SDS011;11026;50.560;17.852;2022-10-31T03:46:08;35.97;;;24.20;;
21727;SDS011;11026;50.560;17.852;2022-10-31T03:48:35;39.47;;;25.33;;
21727;SDS011;11026;50.560;17.852;2022-10-31T03:54:06;40.95;;;25.63;;
21727;SDS011;11026;50.560;17.852;2022-10-31T03:56:44;45.58;;;27.60;;
21727;SDS011;11026;50.560;17.852;2022-10-31T04:01:57;47.47;;;28.27;;
21727;SDS011;11026;50.560;17.852;2022-10-31T04:06:59;43.95;;;28.58;;
21727;SDS011;11026;50.560;17.852;2022-10-31T04:14:52;47.22;;;26.17;;
21727;SDS011;11026;50.560;17.852;2022-10-31T04:17:21;45.40;;;25.08;;
21727;SDS011;11026;50.560;17.852;2022-10-31T04:19:50;36.60;;;23.23;;
21727;SDS011;11026;50.560;17.852;2022-10-31T04:22:19;37.35;;;22.90;;
21727;SDS011;11026;50.560;17.852;2022-10-31T04:24:46;46.78;;;25.15;;
21727;SDS011;11026;50.560;17.852;2022-10-31T04:27:14;35.95;;;25.05;;
21727;SDS011;11026;50.560;17.852;2022-10-31T04:29:42;41.50;;;25.50;;
21727;SDS011;11026;50.560;17.852;2022-10-31T04:32:18;40.22;;;28.98;;
21727;SDS011;11026;50.560;17.852;2022-10-31T04:34:45;41.30;;;29.85;;
21727;SDS011;11026;50.560;17.852;2022-10-31T04:37:14;41.60;;;26.00;;
21727;SDS011;11026;50.560;17.852;2022-10-31T04:42:30;38.90;;;24.98;;
21727;SDS011;11026;50.560;17.852;2022-10-31T04:45:00;43.42;;;26.08;;
21727;SDS011;11026;50.560;17.852;2022-10-31T04:47:29;42.45;;;24.88;;
21727;SDS011;11026;50.560;17.852;2022-10-31T04:49:59;43.67;;;26.80;;
21727;SDS011;11026;50.560;17.852;2022-10-31T04:52:27;43.75;;;26.75;;
21727;SDS011;11026;50.560;17.852;2022-10-31T04:54:54;41.95;;;25.27;;
21727;SDS011;11026;50.560;17.852;2022-10-31T04:57:21;35.17;;;23.58;;
21727;SDS011;11026;50.560;17.852;2022-10-31T04:59:50;37.38;;;24.02;;
21727;SDS011;11026;50.560;17.852;2022-10-31T05:02:17;41.67;;;24.98;;
21727;SDS011;11026;50.560;17.852;2022-10-31T05:04:44;39.88;;;25.42;;
21727;SDS011;11026;50.560;17.852;2022-10-31T05:07:11;48.90;;;29.35;;
21727;SDS011;11026;50.560;17.852;2022-10-31T05:12:07;43.72;;;27.17;;
21727;SDS011;11026;50.560;17.852;2022-10-31T05:14:35;46.40;;;30.45;;
21727;SDS011;11026;50.560;17.852;2022-10-31T05:17:04;47.92;;;28.45;;
21727;SDS011;11026;50.560;17.852;2022-10-31T05:19:31;46.33;;;27.30;;
21727;SDS011;11026;50.560;17.852;2022-10-31T05:24:29;42.75;;;26.45;;
21727;SDS011;11026;50.560;17.852;2022-10-31T05:27:04;39.85;;;26.63;;
21727;SDS011;11026;50.560;17.852;2022-10-31T05:29:38;38.15;;;25.50;;
21727;SDS011;11026;50.560;17.852;2022-10-31T05:32:06;41.37;;;25.80;;
21727;SDS011;11026;50.560;17.852;2022-10-31T05:34:36;41.50;;;25.55;;
21727;SDS011;11026;50.560;17.852;2022-10-31T05:37:03;40.45;;;24.45;;
21727;SDS011;11026;50.560;17.852;2022-10-31T05:39:32;37.97;;;24.23;;
21727;SDS011;11026;50.560;17.852;2022-10-31T05:42:01;39.60;;;24.48;;
21727;SDS011;11026;50.560;17.852;2022-10-31T05:44:38;40.55;;;22.73;;
21727;SDS011;11026;50.560;17.852;2022-10-31T05:47:12;34.15;;;21.65;;
21727;SDS011;11026;50.560;17.852;2022-10-31T05:49:39;39.70;;;24.63;;
21727;SDS011;11026;50.560;17.852;2022-10-31T05:52:06;36.95;;;24.00;;
21727;SDS011;11026;50.560;17.852;2022-10-31T05:54:43;39.95;;;23.38;;
21727;SDS011;11026;50.560;17.852;2022-10-31T05:57:24;38.90;;;23.98;;
21727;SDS011;11026;50.560;17.852;2022-10-31T05:59:59;36.63;;;23.27;;
21727;SDS011;11026;50.560;17.852;2022-10-31T06:02:30;36.72;;;22.80;;
21727;SDS011;11026;50.560;17.852;2022-10-31T06:05:02;34.40;;;23.15;;
21727;SDS011;11026;50.560;17.852;2022-10-31T06:07:33;38.65;;;24.15;;
21727;SDS011;11026;50.560;17.852;2022-10-31T06:10:03;36.33;;;23.08;;
21727;SDS011;11026;50.560;17.852;2022-10-31T06:12:44;36.38;;;23.05;;
21727;SDS011;11026;50.560;17.852;2022-10-31T06:15:12;39.97;;;23.00;;
21727;SDS011;11026;50.560;17.852;2022-10-31T06:17:46;39.33;;;24.92;;
21727;SDS011;11026;50.560;17.852;2022-10-31T06:20:14;40.45;;;27.15;;
21727;SDS011;11026;50.560;17.852;2022-10-31T06:22:48;43.28;;;25.77;;
21727;SDS011;11026;50.560;17.852;2022-10-31T06:27:56;44.95;;;27.10;;
21727;SDS011;11026;50.560;17.852;2022-10-31T06:30:24;41.72;;;27.73;;
21727;SDS011;11026;50.560;17.852;2022-10-31T06:32:52;40.60;;;25.25;;
21727;SDS011;11026;50.560;17.852;2022-10-31T06:35:21;39.35;;;25.70;;
21727;SDS011;11026;50.560;17.852;2022-10-31T06:37:53;37.80;;;23.08;;
21727;SDS011;11026;50.560;17.852;2022-10-31T06:40:20;41.72;;;23.15;;
21727;SDS011;11026;50.560;17.852;2022-10-31T06:43:00;43.20;;;24.58;;
21727;SDS011;11026;50.560;17.852;2022-10-31T06:45:28;45.00;;;25.33;;
21727;SDS011;11026;50.560;17.852;2022-10-31T06:47:57;38.42;;;23.05;;
21727;SDS011;11026;50.560;17.852;2022-10-31T06:50:47;38.60;;;24.35;;
21727;SDS011;11026;50.560;17.852;2022-10-31T06:53:27;37.22;;;22.75;;
21727;SDS011;11026;50.560;17.852;2022-10-31T06:56:05;32.37;;;21.60;;
21727;SDS011;11026;50.560;17.852;2022-10-31T07:01:13;35.15;;;21.85;;
21727;SDS011;11026;50.560;17.852;2022-10-31T07:03:40;31.85;;;20.40;;
21727;SDS011;11026;50.560;17.852;2022-10-31T07:06:09;33.28;;;21.33;;
21727;SDS011;11026;50.560;17.852;2022-10-31T07:08:36;32.25;;;20.05;;
21727;SDS011;11026;50.560;17.852;2022-10-31T07:13:34;36.22;;;21.52;;
21727;SDS011;11026;50.560;17.852;2022-10-31T07:16:05;33.40;;;21.83;;
21727;SDS011;11026;50.560;17.852;2022-10-31T07:18:35;34.07;;;21.23;;
21727;SDS011;11026;50.560;17.852;2022-10-31T07:21:02;32.22;;;21.42;;
21727;SDS011;11026;50.560;17.852;2022-10-31T07:23:30;31.55;;;20.25;;
21727;SDS011;11026;50.560;17.852;2022-10-31T07:26:04;29.95;;;19.60;;
21727;SDS011;11026;50.560;17.852;2022-10-31T07:31:05;29.45;;;20.10;;
21727;SDS011;11026;50.560;17.852;2022-10-31T07:33:33;28.80;;;19.38;;
21727;SDS011;11026;50.560;17.852;2022-10-31T07:38:35;30.67;;;19.45;;
21727;SDS011;11026;50.560;17.852;2022-10-31T07:41:09;31.52;;;18.67;;
21727;SDS011;11026;50.560;17.852;2022-10-31T07:43:36;27.20;;;16.55;;
21727;SDS011;11026;50.560;17.852;2022-10-31T07:46:10;26.58;;;16.65;;
21727;SDS011;11026;50.560;17.852;2022-10-31T07:48:38;28.00;;;16.55;;
21727;SDS011;11026;50.560;17.852;2022-10-31T07:54:09;27.05;;;15.75;;
21727;SDS011;11026;50.560;17.852;2022-10-31T07:56:36;25.83;;;15.73;;
21727;SDS011;11026;50.560;17.852;2022-10-31T07:59:03;26.60;;;15.68;;
21727;SDS011;11026;50.560;17.852;2022-10-31T08:01:32;23.75;;;15.13;;
21727;SDS011;11026;50.560;17.852;2022-10-31T08:06:36;24.27;;;16.25;;
21727;SDS011;11026;50.560;17.852;2022-10-31T08:09:04;22.67;;;14.57;;
21727;SDS011;11026;50.560;17.852;2022-10-31T08:14:27;26.20;;;15.80;;
21727;SDS011;11026;50.560;17.852;2022-10-31T08:16:54;24.92;;;14.70;;
21727;SDS011;11026;50.560;17.852;2022-10-31T08:19:33;23.52;;;14.57;;
21727;SDS011;11026;50.560;17.852;2022-10-31T08:22:00;24.58;;;14.02;;
21727;SDS011;11026;50.560;17.852;2022-10-31T08:24:29;24.30;;;13.65;;
21727;SDS011;11026;50.560;17.852;2022-10-31T08:26:59;21.40;;;13.45;;
21727;SDS011;11026;50.560;17.852;2022-10-31T08:29:26;22.30;;;12.77;;
21727;SDS011;11026;50.560;17.852;2022-10-31T08:31:53;20.85;;;12.02;;
21727;SDS011;11026;50.560;17.852;2022-10-31T08:34:20;20.75;;;11.60;;
21727;SDS011;11026;50.560;17.852;2022-10-31T08:36:48;22.73;;;11.30;;
21727;SDS011;11026;50.560;17.852;2022-10-31T08:41:51;16.35;;;10.27;;
21727;SDS011;11026;50.560;17.852;2022-10-31T08:44:25;16.88;;;10.13;;
21727;SDS011;11026;50.560;17.852;2022-10-31T08:46:53;16.10;;;9.25;;
21727;SDS011;11026;50.560;17.852;2022-10-31T08:49:20;15.60;;;8.90;;
21727;SDS011;11026;50.560;17.852;2022-10-31T08:51:48;14.35;;;8.38;;
21727;SDS011;11026;50.560;17.852;2022-10-31T08:54:16;18.27;;;8.68;;
21727;SDS011;11026;50.560;17.852;2022-10-31T08:56:45;15.60;;;8.10;;
21727;SDS011;11026;50.560;17.852;2022-10-31T08:59:12;17.35;;;8.05;;
21727;SDS011;11026;50.560;17.852;2022-10-31T09:01:41;16.40;;;8.38;;
21727;SDS011;11026;50.560;17.852;2022-10-31T09:04:09;14.82;;;8.02;;
21727;SDS011;11026;50.560;17.852;2022-10-31T09:06:51;16.08;;;8.13;;
21727;SDS011;11026;50.560;17.852;2022-10-31T09:09:46;12.90;;;7.57;;
21727;SDS011;11026;50.560;17.852;2022-10-31T09:12:13;15.30;;;7.85;;
21727;SDS011;11026;50.560;17.852;2022-10-31T09:14:49;14.23;;;7.30;;
21727;SDS011;11026;50.560;17.852;2022-10-31T09:17:18;14.88;;;7.55;;
21727;SDS011;11026;50.560;17.852;2022-10-31T09:19:46;12.07;;;7.20;;
21727;SDS011;11026;50.560;17.852;2022-10-31T09:24:56;13.10;;;7.20;;
21727;SDS011;11026;50.560;17.852;2022-10-31T09:27:28;15.38;;;7.28;;
21727;SDS011;11026;50.560;17.852;2022-10-31T09:30:03;10.40;;;6.43;;
21727;SDS011;11026;50.560;17.852;2022-10-31T09:32:42;11.32;;;7.05;;
21727;SDS011;11026;50.560;17.852;2022-10-31T09:35:10;11.82;;;7.28;;
21727;SDS011;11026;50.560;17.852;2022-10-31T09:40:38;7.38;;;4.15;;
21727;SDS011;11026;50.560;17.852;2022-10-31T09:52:31;8.20;;;4.00;;
21727;SDS011;11026;50.560;17.852;2022-10-31T10:00:55;9.70;;;4.43;;
21727;SDS011;11026;50.560;17.852;2022-10-31T10:06:16;10.70;;;4.40;;
21727;SDS011;11026;50.560;17.852;2022-10-31T10:11:32;8.25;;;4.53;;
21727;SDS011;11026;50.560;17.852;2022-10-31T10:20:09;8.10;;;4.32;;
21727;SDS011;11026;50.560;17.852;2022-10-31T10:22:47;9.68;;;4.75;;
21727;SDS011;11026;50.560;17.852;2022-10-31T10:25:44;7.72;;;4.13;;
21727;SDS011;11026;50.560;17.852;2022-10-31T10:30:53;9.65;;;5.03;;
21727;SDS011;11026;50.560;17.852;2022-10-31T10:39:09;8.80;;;4.60;;
21727;SDS011;11026;50.560;17.852;2022-10-31T10:47:53;10.55;;;4.57;;
21727;SDS011;11026;50.560;17.852;2022-10-31T10:50:32;9.95;;;4.32;;
21727;SDS011;11026;50.560;17.852;2022-10-31T10:56:36;15.02;;;5.22;;
21727;SDS011;11026;50.560;17.852;2022-10-31T10:59:20;8.82;;;4.22;;
21727;SDS011;11026;50.560;17.852;2022-10-31T11:01:59;11.13;;;4.55;;
21727;SDS011;11026;50.560;17.852;2022-10-31T11:04:31;10.98;;;5.43;;
21727;SDS011;11026;50.560;17.852;2022-10-31T11:07:05;9.05;;;4.38;;
21727;SDS011;11026;50.560;17.852;2022-10-31T11:09:36;8.27;;;4.03;;
21727;SDS011;11026;50.560;17.852;2022-10-31T11:15:15;12.10;;;4.13;;
21727;SDS011;11026;50.560;17.852;2022-10-31T11:17:54;9.48;;;4.15;;
21727;SDS011;11026;50.560;17.852;2022-10-31T11:23:33;7.07;;;3.90;;
21727;SDS011;11026;50.560;17.852;2022-10-31T11:26:02;13.48;;;3.92;;
21727;SDS011;11026;50.560;17.852;2022-10-31T11:28:32;7.30;;;3.70;;
21727;SDS011;11026;50.560;17.852;2022-10-31T11:31:12;12.70;;;4.80;;
21727;SDS011;11026;50.560;17.852;2022-10-31T11:33:50;6.07;;;3.58;;
21727;SDS011;11026;50.560;17.852;2022-10-31T11:36:27;6.85;;;3.55;;
21727;SDS011;11026;50.560;17.852;2022-10-31T11:38:59;8.45;;;3.70;;
21727;SDS011;11026;50.560;17.852;2022-10-31T11:41:34;13.32;;;4.93;;
21727;SDS011;11026;50.560;17.852;2022-10-31T11:46:54;8.73;;;3.80;;
21727;SDS011;11026;50.560;17.852;2022-10-31T11:52:29;9.32;;;4.10;;
21727;SDS011;11026;50.560;17.852;2022-10-31T11:57:51;7.80;;;4.00;;
21727;SDS011;11026;50.560;17.852;2022-10-31T12:03:16;12.05;;;5.40;;
21727;SDS011;11026;50.560;17.852;2022-10-31T12:05:47;11.50;;;4.93;;
21727;SDS011;11026;50.560;17.852;2022-10-31T12:08:27;12.43;;;5.00;;
21727;SDS011;11026;50.560;17.852;2022-10-31T12:31:46;11.70;;;4.93;;
21727;SDS011;11026;50.560;17.852;2022-10-31T12:46:04;10.02;;;4.57;;
21727;SDS011;11026;50.560;17.852;2022-10-31T12:48:52;8.00;;;4.22;;
21727;SDS011;11026;50.560;17.852;2022-10-31T12:52:16;10.68;;;6.47;;
21727;SDS011;11026;50.560;17.852;2022-10-31T13:00:14;8.85;;;4.60;;
21727;SDS011;11026;50.560;17.852;2022-10-31T13:05:49;12.63;;;5.38;;
21727;SDS011;11026;50.560;17.852;2022-10-31T13:08:33;31.63;;;13.70;;
21727;SDS011;11026;50.560;17.852;2022-10-31T13:16:52;14.27;;;6.43;;
21727;SDS011;11026;50.560;17.852;2022-10-31T13:19:23;13.60;;;5.63;;
21727;SDS011;11026;50.560;17.852;2022-10-31T13:24:59;11.65;;;4.20;;
21727;SDS011;11026;50.560;17.852;2022-10-31T13:27:45;11.85;;;4.82;;
21727;SDS011;11026;50.560;17.852;2022-10-31T13:30:19;12.30;;;5.50;;
21727;SDS011;11026;50.560;17.852;2022-10-31T13:42:23;13.60;;;6.47;;
21727;SDS011;11026;50.560;17.852;2022-10-31T13:45:11;8.88;;;5.28;;
21727;SDS011;11026;50.560;17.852;2022-10-31T13:47:40;9.98;;;4.60;;
21727;SDS011;11026;50.560;17.852;2022-10-31T13:50:22;9.38;;;4.53;;
21727;SDS011;11026;50.560;17.852;2022-10-31T13:55:49;11.68;;;4.07;;
21727;SDS011;11026;50.560;17.852;2022-10-31T13:58:30;13.25;;;4.40;;
21727;SDS011;11026;50.560;17.852;2022-10-31T14:03:47;11.80;;;4.15;;
21727;SDS011;11026;50.560;17.852;2022-10-31T14:06:47;9.13;;;4.15;;
21727;SDS011;11026;50.560;17.852;2022-10-31T14:09:28;8.90;;;4.35;;
21727;SDS011;11026;50.560;17.852;2022-10-31T14:12:01;8.02;;;4.40;;
21727;SDS011;11026;50.560;17.852;2022-10-31T14:14:47;13.57;;;4.70;;
21727;SDS011;11026;50.560;17.852;2022-10-31T14:19:58;6.57;;;4.13;;
21727;SDS011;11026;50.560;17.852;2022-10-31T14:22:31;8.90;;;4.45;;
21727;SDS011;11026;50.560;17.852;2022-10-31T14:27:52;10.65;;;5.43;;
21727;SDS011;11026;50.560;17.852;2022-10-31T14:30:21;11.27;;;4.43;;
21727;SDS011;11026;50.560;17.852;2022-10-31T14:32:52;15.98;;;5.07;;
21727;SDS011;11026;50.560;17.852;2022-10-31T14:38:32;11.45;;;4.78;;
21727;SDS011;11026;50.560;17.852;2022-10-31T14:44:28;14.32;;;4.95;;
21727;SDS011;11026;50.560;17.852;2022-10-31T14:50:43;15.88;;;5.35;;
21727;SDS011;11026;50.560;17.852;2022-10-31T14:53:22;19.05;;;5.95;;
21727;SDS011;11026;50.560;17.852;2022-10-31T14:58:43;23.95;;;7.57;;
21727;SDS011;11026;50.560;17.852;2022-10-31T15:01:33;24.63;;;7.60;;
21727;SDS011;11026;50.560;17.852;2022-10-31T15:07:11;18.92;;;7.75;;
21727;SDS011;11026;50.560;17.852;2022-10-31T15:09:57;16.33;;;7.20;;
21727;SDS011;11026;50.560;17.852;2022-10-31T15:12:34;19.63;;;7.85;;
21727;SDS011;11026;50.560;17.852;2022-10-31T15:15:39;18.85;;;8.70;;
21727;SDS011;11026;50.560;17.852;2022-10-31T15:18:15;20.88;;;9.15;;
21727;SDS011;11026;50.560;17.852;2022-10-31T15:23:25;17.48;;;6.03;;
21727;SDS011;11026;50.560;17.852;2022-10-31T15:25:59;15.38;;;7.78;;
21727;SDS011;11026;50.560;17.852;2022-10-31T15:28:30;10.57;;;4.78;;
21727;SDS011;11026;50.560;17.852;2022-10-31T15:31:01;12.88;;;5.50;;
21727;SDS011;11026;50.560;17.852;2022-10-31T15:33:49;10.65;;;5.55;;
21727;SDS011;11026;50.560;17.852;2022-10-31T15:36:21;15.75;;;6.05;;
21727;SDS011;11026;50.560;17.852;2022-10-31T15:39:02;9.68;;;5.45;;
21727;SDS011;11026;50.560;17.852;2022-10-31T15:41:32;13.77;;;5.57;;
21727;SDS011;11026;50.560;17.852;2022-10-31T15:47:13;10.60;;;5.45;;
21727;SDS011;11026;50.560;17.852;2022-10-31T15:49:53;10.75;;;6.00;;
21727;SDS011;11026;50.560;17.852;2022-10-31T15:55:29;8.70;;;6.13;;
21727;SDS011;11026;50.560;17.852;2022-10-31T15:58:03;14.63;;;7.35;;
21727;SDS011;11026;50.560;17.852;2022-10-31T16:03:40;15.10;;;6.50;;
21727;SDS011;11026;50.560;17.852;2022-10-31T16:06:18;20.40;;;8.55;;
21727;SDS011;11026;50.560;17.852;2022-10-31T16:08:48;18.77;;;8.98;;
21727;SDS011;11026;50.560;17.852;2022-10-31T16:20:21;14.65;;;6.80;;
21727;SDS011;11026;50.560;17.852;2022-10-31T16:22:53;11.05;;;6.40;;
21727;SDS011;11026;50.560;17.852;2022-10-31T16:34:20;12.35;;;7.65;;
21727;SDS011;11026;50.560;17.852;2022-10-31T16:39:24;14.02;;;7.35;;
21727;SDS011;11026;50.560;17.852;2022-10-31T16:41:56;14.90;;;8.00;;
21727;SDS011;11026;50.560;17.852;2022-10-31T16:44:32;15.98;;;8.05;;
21727;SDS011;11026;50.560;17.852;2022-10-31T16:53:31;11.95;;;6.13;;
21727;SDS011;11026;50.560;17.852;2022-10-31T16:56:12;11.80;;;6.78;;
21727;SDS011;11026;50.560;17.852;2022-10-31T16:58:44;12.75;;;7.55;;
21727;SDS011;11026;50.560;17.852;2022-10-31T17:03:55;13.43;;;8.27;;
21727;SDS011;11026;50.560;17.852;2022-10-31T17:13:00;14.90;;;6.53;;
21727;SDS011;11026;50.560;17.852;2022-10-31T17:18:37;10.13;;;6.43;;
21727;SDS011;11026;50.560;17.852;2022-10-31T17:24:25;13.13;;;6.65;;
21727;SDS011;11026;50.560;17.852;2022-10-31T17:26:54;18.80;;;9.07;;
21727;SDS011;11026;50.560;17.852;2022-10-31T17:29:25;13.57;;;9.35;;
21727;SDS011;11026;50.560;17.852;2022-10-31T17:31:52;11.05;;;7.50;;
21727;SDS011;11026;50.560;17.852;2022-10-31T17:34:19;19.58;;;10.65;;
21727;SDS011;11026;50.560;17.852;2022-10-31T17:36:51;14.50;;;8.48;;
21727;SDS011;11026;50.560;17.852;2022-10-31T17:41:55;9.75;;;7.28;;
21727;SDS011;11026;50.560;17.852;2022-10-31T18:06:15;14.95;;;8.07;;
21727;SDS011;11026;50.560;17.852;2022-10-31T18:11:31;11.15;;;6.72;;
21727;SDS011;11026;50.560;17.852;2022-10-31T18:19:41;12.45;;;7.93;;
21727;SDS011;11026;50.560;17.852;2022-10-31T18:22:13;10.77;;;7.97;;
21727;SDS011;11026;50.560;17.852;2022-10-31T18:24:40;11.90;;;7.30;;
21727;SDS011;11026;50.560;17.852;2022-10-31T18:27:12;12.80;;;7.55;;
21727;SDS011;11026;50.560;17.852;2022-10-31T18:29:46;11.45;;;7.45;;
21727;SDS011;11026;50.560;17.852;2022-10-31T18:35:24;10.95;;;6.90;;
21727;SDS011;11026;50.560;17.852;2022-10-31T18:40:39;8.40;;;6.28;;
21727;SDS011;11026;50.560;17.852;2022-10-31T18:43:19;9.18;;;5.50;;
21727;SDS011;11026;50.560;17.852;2022-10-31T18:45:48;6.95;;;4.88;;
21727;SDS011;11026;50.560;17.852;2022-10-31T18:48:33;7.97;;;5.13;;
21727;SDS011;11026;50.560;17.852;2022-10-31T18:51:02;9.85;;;5.63;;
21727;SDS011;11026;50.560;17.852;2022-10-31T18:53:34;8.32;;;5.90;;
21727;SDS011;11026;50.560;17.852;2022-10-31T18:56:08;6.65;;;5.00;;
21727;SDS011;11026;50.560;17.852;2022-10-31T19:01:16;15.38;;;8.23;;
21727;SDS011;11026;50.560;17.852;2022-10-31T19:03:51;10.32;;;4.10;;
21727;SDS011;11026;50.560;17.852;2022-10-31T19:09:25;5.65;;;4.70;;
21727;SDS011;11026;50.560;17.852;2022-10-31T19:14:45;11.95;;;5.95;;
21727;SDS011;11026;50.560;17.852;2022-10-31T19:22:29;8.05;;;6.28;;
21727;SDS011;11026;50.560;17.852;2022-10-31T19:31:02;10.27;;;7.70;;
21727;SDS011;11026;50.560;17.852;2022-10-31T19:36:34;11.45;;;7.05;;
21727;SDS011;11026;50.560;17.852;2022-10-31T19:39:02;13.85;;;6.90;;
21727;SDS011;11026;50.560;17.852;2022-10-31T19:41:37;19.65;;;12.00;;
21727;SDS011;11026;50.560;17.852;2022-10-31T19:44:19;9.23;;;6.97;;
21727;SDS011;11026;50.560;17.852;2022-10-31T19:49:24;12.05;;;7.60;;
21727;SDS011;11026;50.560;17.852;2022-10-31T19:55:03;9.00;;;5.80;;
21727;SDS011;11026;50.560;17.852;2022-10-31T19:57:44;10.55;;;5.60;;
21727;SDS011;11026;50.560;17.852;2022-10-31T20:03:31;16.00;;;11.02;;
21727;SDS011;11026;50.560;17.852;2022-10-31T20:08:59;9.18;;;5.88;;
21727;SDS011;11026;50.560;17.852;2022-10-31T20:11:41;16.85;;;13.02;;
21727;SDS011;11026;50.560;17.852;2022-10-31T20:14:15;5.90;;;5.32;;
21727;SDS011;11026;50.560;17.852;2022-10-31T20:19:35;6.35;;;5.65;;
21727;SDS011;11026;50.560;17.852;2022-10-31T20:22:03;7.28;;;6.18;;
21727;SDS011;11026;50.560;17.852;2022-10-31T20:24:31;7.97;;;5.55;;
21727;SDS011;11026;50.560;17.852;2022-10-31T20:26:59;6.32;;;4.53;;
21727;SDS011;11026;50.560;17.852;2022-10-31T20:29:27;6.93;;;5.03;;
21727;SDS011;11026;50.560;17.852;2022-10-31T20:40:09;8.45;;;7.13;;
21727;SDS011;11026;50.560;17.852;2022-10-31T20:45:23;12.88;;;6.22;;
21727;SDS011;11026;50.560;17.852;2022-10-31T20:48:01;18.25;;;13.32;;
21727;SDS011;11026;50.560;17.852;2022-10-31T20:53:35;10.13;;;7.57;;
21727;SDS011;11026;50.560;17.852;2022-10-31T20:58:44;33.28;;;8.00;;
21727;SDS011;11026;50.560;17.852;2022-10-31T21:01:16;11.23;;;7.00;;
21727;SDS011;11026;50.560;17.852;2022-10-31T21:06:37;14.38;;;8.00;;
21727;SDS011;11026;50.560;17.852;2022-10-31T21:09:21;15.00;;;9.05;;
21727;SDS011;11026;50.560;17.852;2022-10-31T21:11:51;12.02;;;8.80;;
21727;SDS011;11026;50.560;17.852;2022-10-31T21:14:20;15.07;;;9.63;;
21727;SDS011;11026;50.560;17.852;2022-10-31T21:16:47;13.40;;;9.82;;
21727;SDS011;11026;50.560;17.852;2022-10-31T21:19:14;16.10;;;10.07;;
21727;SDS011;11026;50.560;17.852;2022-10-31T21:24:27;15.88;;;10.98;;
21727;SDS011;11026;50.560;17.852;2022-10-31T21:29:47;26.13;;;22.92;;
21727;SDS011;11026;50.560;17.852;2022-10-31T21:35:05;25.95;;;17.60;;
21727;SDS011;11026;50.560;17.852;2022-10-31T21:45:24;17.02;;;11.88;;
21727;SDS011;11026;50.560;17.852;2022-10-31T21:54:37;16.20;;;10.02;;
21727;SDS011;11026;50.560;17.852;2022-10-31T22:00:44;20.95;;;12.93;;
21727;SDS011;11026;50.560;17.852;2022-10-31T22:03:12;26.83;;;17.33;;
21727;SDS011;11026;50.560;17.852;2022-10-31T22:08:09;16.67;;;11.05;;
21727;SDS011;11026;50.560;17.852;2022-10-31T22:22:10;20.77;;;11.70;;
21727;SDS011;11026;50.560;17.852;2022-10-31T22:24:44;14.95;;;9.70;;